sensor_id;sensor_type;location;lat;lon;timestamp;pressure;altitude;pressure_sealevel;temperature;humidity
48200;BME280;33990;44.602;10.976;2023-09-18T00:00:47;101204.44;;;25.48;65.29
48200;BME280;33990;44.602;10.976;2023-09-18T00:03:21;101213.59;;;25.47;65.36
48200;BME280;33990;44.602;10.976;2023-09-18T00:05:52;101230.69;;;25.47;65.36
48200;BME280;33990;44.602;10.976;2023-09-18T00:08:20;101231.53;;;25.48;65.19
48200;BME280;33990;44.602;10.976;2023-09-18T00:10:50;101235.97;;;25.49;65.25
48200;BME280;33990;44.602;10.976;2023-09-18T00:13:18;101222.56;;;25.47;65.16
48200;BME280;33990;44.602;10.976;2023-09-18T00:15:46;101218.88;;;25.48;65.18
48200;BME280;33990;44.602;10.976;2023-09-18T00:18:15;101218.00;;;25.48;65.23
48200;BME280;33990;44.602;10.976;2023-09-18T00:20:43;101221.56;;;25.48;65.08
48200;BME280;33990;44.602;10.976;2023-09-18T00:23:11;101226.13;;;25.48;65.05
48200;BME280;33990;44.602;10.976;2023-09-18T00:25:38;101218.88;;;25.48;65.06
48200;BME280;33990;44.602;10.976;2023-09-18T00:28:09;101209.72;;;25.49;64.87
48200;BME280;33990;44.602;10.976;2023-09-18T00:30:38;101207.84;;;25.50;65.00
48200;BME280;33990;44.602;10.976;2023-09-18T00:33:10;101204.28;;;25.49;65.12
48200;BME280;33990;44.602;10.976;2023-09-18T00:35:37;101202.59;;;25.48;65.05
48200;BME280;33990;44.602;10.976;2023-09-18T00:38:05;101202.44;;;25.50;64.96
48200;BME280;33990;44.602;10.976;2023-09-18T00:40:35;101196.16;;;25.49;64.86
48200;BME280;33990;44.602;10.976;2023-09-18T00:43:03;101189.91;;;25.49;64.95
48200;BME280;33990;44.602;10.976;2023-09-18T00:45:30;101188.03;;;25.49;65.02
48200;BME280;33990;44.602;10.976;2023-09-18T00:47:59;101194.28;;;25.50;65.02
48200;BME280;33990;44.602;10.976;2023-09-18T00:50:26;101195.13;;;25.50;64.93
48200;BME280;33990;44.602;10.976;2023-09-18T00:52:54;101162.78;;;25.49;64.91
48200;BME280;33990;44.602;10.976;2023-09-18T00:55:22;101150.91;;;25.50;65.00
48200;BME280;33990;44.602;10.976;2023-09-18T00:57:49;101161.75;;;25.50;64.89
48200;BME280;33990;44.602;10.976;2023-09-18T01:00:17;101160.91;;;25.49;64.92
48200;BME280;33990;44.602;10.976;2023-09-18T01:02:45;101160.91;;;25.49;65.02
48200;BME280;33990;44.602;10.976;2023-09-18T01:05:13;101168.03;;;25.50;64.90
48200;BME280;33990;44.602;10.976;2023-09-18T01:07:43;101160.75;;;25.51;64.88
48200;BME280;33990;44.602;10.976;2023-09-18T01:10:12;101169.72;;;25.51;64.85
48200;BME280;33990;44.602;10.976;2023-09-18T01:12:52;101152.59;;;25.51;64.87
48200;BME280;33990;44.602;10.976;2023-09-18T01:15:37;101146.34;;;25.50;64.80
48200;BME280;33990;44.602;10.976;2023-09-18T01:18:11;101134.66;;;25.50;64.84
48200;BME280;33990;44.602;10.976;2023-09-18T01:20:39;101124.66;;;25.50;64.76
48200;BME280;33990;44.602;10.976;2023-09-18T01:23:06;101142.78;;;25.50;64.79
48200;BME280;33990;44.602;10.976;2023-09-18T01:25:34;101157.19;;;25.50;64.82
48200;BME280;33990;44.602;10.976;2023-09-18T01:28:01;101140.94;;;25.50;64.87
48200;BME280;33990;44.602;10.976;2023-09-18T01:30:30;101144.66;;;25.49;64.84
48200;BME280;33990;44.602;10.976;2023-09-18T01:32:58;101158.03;;;25.51;65.04
48200;BME280;33990;44.602;10.976;2023-09-18T01:35:26;101165.31;;;25.50;64.74
48200;BME280;33990;44.602;10.976;2023-09-18T01:37:59;101165.31;;;25.50;64.82
48200;BME280;33990;44.602;10.976;2023-09-18T01:40:28;101157.19;;;25.50;64.75
48200;BME280;33990;44.602;10.976;2023-09-18T01:42:56;101146.34;;;25.50;64.82
48200;BME280;33990;44.602;10.976;2023-09-18T01:45:23;101145.31;;;25.51;64.75
48200;BME280;33990;44.602;10.976;2023-09-18T01:47:51;101139.06;;;25.51;64.78
48200;BME280;33990;44.602;10.976;2023-09-18T01:50:18;101147.19;;;25.51;64.75
48200;BME280;33990;44.602;10.976;2023-09-18T01:52:47;101142.63;;;25.51;64.71
48200;BME280;33990;44.602;10.976;2023-09-18T01:55:14;101137.19;;;25.51;64.68
48200;BME280;33990;44.602;10.976;2023-09-18T01:57:42;101131.78;;;25.51;64.65
48200;BME280;33990;44.602;10.976;2023-09-18T02:00:11;101135.50;;;25.50;64.78
48200;BME280;33990;44.602;10.976;2023-09-18T02:02:39;101129.06;;;25.51;64.66
48200;BME280;33990;44.602;10.976;2023-09-18T02:05:27;101125.50;;;25.51;64.52
48200;BME280;33990;44.602;10.976;2023-09-18T02:07:55;101138.22;;;25.50;64.58
48200;BME280;33990;44.602;10.976;2023-09-18T02:10:23;101142.78;;;25.50;64.52
48200;BME280;33990;44.602;10.976;2023-09-18T02:12:51;101158.03;;;25.51;64.58
48200;BME280;33990;44.602;10.976;2023-09-18T02:15:18;101152.59;;;25.51;64.48
48200;BME280;33990;44.602;10.976;2023-09-18T02:17:46;101136.34;;;25.51;64.53
48200;BME280;33990;44.602;10.976;2023-09-18T02:20:13;101135.50;;;25.50;64.40
48200;BME280;33990;44.602;10.976;2023-09-18T02:22:41;101128.22;;;25.51;64.38
48200;BME280;33990;44.602;10.976;2023-09-18T02:25:09;101137.19;;;25.51;64.35
48200;BME280;33990;44.602;10.976;2023-09-18T02:27:36;101137.19;;;25.51;64.34
48200;BME280;33990;44.602;10.976;2023-09-18T02:30:04;101126.34;;;25.51;64.43
48200;BME280;33990;44.602;10.976;2023-09-18T02:32:31;101132.63;;;25.52;64.35
48200;BME280;33990;44.602;10.976;2023-09-18T02:35:00;101128.22;;;25.51;64.44
48200;BME280;33990;44.602;10.976;2023-09-18T02:37:28;101120.09;;;25.51;64.46
48200;BME280;33990;44.602;10.976;2023-09-18T02:39:56;101104.66;;;25.51;64.45
48200;BME280;33990;44.602;10.976;2023-09-18T02:42:23;101094.66;;;25.52;64.44
48200;BME280;33990;44.602;10.976;2023-09-18T02:44:51;101067.56;;;25.52;64.52
48200;BME280;33990;44.602;10.976;2023-09-18T02:47:19;101036.88;;;25.51;64.38
48200;BME280;33990;44.602;10.976;2023-09-18T02:49:46;101018.75;;;25.52;64.47
48200;BME280;33990;44.602;10.976;2023-09-18T02:52:14;101007.91;;;25.52;64.53
48200;BME280;33990;44.602;10.976;2023-09-18T02:54:41;101013.34;;;25.52;64.66
48200;BME280;33990;44.602;10.976;2023-09-18T02:57:09;101023.34;;;25.51;64.54
48200;BME280;33990;44.602;10.976;2023-09-18T02:59:36;101028.94;;;25.50;64.44
48200;BME280;33990;44.602;10.976;2023-09-18T03:02:04;101052.50;;;25.49;64.54
48200;BME280;33990;44.602;10.976;2023-09-18T03:04:33;101051.66;;;25.49;64.29
48200;BME280;33990;44.602;10.976;2023-09-18T03:07:01;101045.38;;;25.48;64.22
48200;BME280;33990;44.602;10.976;2023-09-18T03:09:29;101051.66;;;25.49;64.19
48200;BME280;33990;44.602;10.976;2023-09-18T03:11:56;101052.81;;;25.46;64.33
48200;BME280;33990;44.602;10.976;2023-09-18T03:14:25;101040.28;;;25.45;64.33
48200;BME280;33990;44.602;10.976;2023-09-18T03:16:52;101042.81;;;25.47;64.29
48200;BME280;33990;44.602;10.976;2023-09-18T03:19:21;101039.25;;;25.46;64.28
48200;BME280;33990;44.602;10.976;2023-09-18T03:21:52;101029.44;;;25.45;64.31
48200;BME280;33990;44.602;10.976;2023-09-18T03:24:20;101026.72;;;25.45;64.33
48200;BME280;33990;44.602;10.976;2023-09-18T03:26:47;101016.03;;;25.44;64.01
48200;BME280;33990;44.602;10.976;2023-09-18T03:29:16;101003.69;;;25.41;64.05
48200;BME280;33990;44.602;10.976;2023-09-18T03:31:44;101012.66;;;25.42;64.09
48200;BME280;33990;44.602;10.976;2023-09-18T03:34:11;101015.53;;;25.40;64.01
48200;BME280;33990;44.602;10.976;2023-09-18T03:36:39;101014.69;;;25.39;64.18
48200;BME280;33990;44.602;10.976;2023-09-18T03:39:07;101011.97;;;25.39;64.17
48200;BME280;33990;44.602;10.976;2023-09-18T03:41:34;101012.81;;;25.40;64.25
48200;BME280;33990;44.602;10.976;2023-09-18T03:44:02;101021.13;;;25.38;64.02
48200;BME280;33990;44.602;10.976;2023-09-18T03:46:30;101037.38;;;25.38;64.38
48200;BME280;33990;44.602;10.976;2023-09-18T03:48:58;101045.50;;;25.38;64.32
48200;BME280;33990;44.602;10.976;2023-09-18T03:51:26;101049.91;;;25.39;64.30
48200;BME280;33990;44.602;10.976;2023-09-18T03:53:53;101053.66;;;25.38;64.37
48200;BME280;33990;44.602;10.976;2023-09-18T03:56:21;101046.34;;;25.39;64.09
48200;BME280;33990;44.602;10.976;2023-09-18T03:58:49;101031.97;;;25.38;64.29
48200;BME280;33990;44.602;10.976;2023-09-18T04:01:17;101032.81;;;25.39;64.17
48200;BME280;33990;44.602;10.976;2023-09-18T04:03:45;101026.53;;;25.38;64.24
48200;BME280;33990;44.602;10.976;2023-09-18T04:06:13;101027.38;;;25.39;64.15
48200;BME280;33990;44.602;10.976;2023-09-18T04:08:40;101029.25;;;25.38;64.04
48200;BME280;33990;44.602;10.976;2023-09-18T04:11:09;101036.53;;;25.38;64.17
48200;BME280;33990;44.602;10.976;2023-09-18T04:13:37;101060.94;;;25.38;64.18
48200;BME280;33990;44.602;10.976;2023-09-18T04:16:04;101070.94;;;25.37;64.23
48200;BME280;33990;44.602;10.976;2023-09-18T04:18:32;101076.34;;;25.37;64.07
48200;BME280;33990;44.602;10.976;2023-09-18T04:21:00;101075.50;;;25.37;64.31
48200;BME280;33990;44.602;10.976;2023-09-18T04:23:27;101076.34;;;25.37;64.20
48200;BME280;33990;44.602;10.976;2023-09-18T04:25:55;101080.94;;;25.37;64.02
48200;BME280;33990;44.602;10.976;2023-09-18T04:28:26;101072.78;;;25.37;64.04
48200;BME280;33990;44.602;10.976;2023-09-18T04:30:54;101079.22;;;25.36;64.14
48200;BME280;33990;44.602;10.976;2023-09-18T04:33:24;101081.91;;;25.36;64.20
48200;BME280;33990;44.602;10.976;2023-09-18T04:35:53;101077.53;;;25.35;64.19
48200;BME280;33990;44.602;10.976;2023-09-18T04:38:20;101068.38;;;25.36;63.89
48200;BME280;33990;44.602;10.976;2023-09-18T04:40:48;101057.72;;;25.34;64.02
48200;BME280;33990;44.602;10.976;2023-09-18T04:43:16;101064.16;;;25.33;64.17
48200;BME280;33990;44.602;10.976;2023-09-18T04:45:44;101071.25;;;25.34;64.04
48200;BME280;33990;44.602;10.976;2023-09-18T04:48:13;101059.56;;;25.34;64.11
48200;BME280;33990;44.602;10.976;2023-09-18T04:50:42;101054.16;;;25.34;64.12
48200;BME280;33990;44.602;10.976;2023-09-18T04:53:10;101066.69;;;25.35;64.02
48200;BME280;33990;44.602;10.976;2023-09-18T04:55:37;101064.81;;;25.35;64.13
48200;BME280;33990;44.602;10.976;2023-09-18T04:58:05;101062.09;;;25.35;64.13
48200;BME280;33990;44.602;10.976;2023-09-18T05:00:34;101063.97;;;25.35;64.13
48200;BME280;33990;44.602;10.976;2023-09-18T05:03:02;101064.16;;;25.33;64.18
48200;BME280;33990;44.602;10.976;2023-09-18T05:05:30;101073.97;;;25.34;64.06
48200;BME280;33990;44.602;10.976;2023-09-18T05:07:58;101077.69;;;25.33;64.14
48200;BME280;33990;44.602;10.976;2023-09-18T05:10:26;101093.97;;;25.33;63.96
48200;BME280;33990;44.602;10.976;2023-09-18T05:12:53;101105.81;;;25.32;64.03
48200;BME280;33990;44.602;10.976;2023-09-18T05:15:26;101106.66;;;25.33;64.00
48200;BME280;33990;44.602;10.976;2023-09-18T05:17:58;101099.53;;;25.32;64.10
48200;BME280;33990;44.602;10.976;2023-09-18T05:20:28;101085.13;;;25.31;64.04
48200;BME280;33990;44.602;10.976;2023-09-18T05:22:57;101077.00;;;25.31;63.86
48200;BME280;33990;44.602;10.976;2023-09-18T05:25:26;101085.97;;;25.32;64.03
48200;BME280;33990;44.602;10.976;2023-09-18T05:27:56;101083.25;;;25.32;63.96
48200;BME280;33990;44.602;10.976;2023-09-18T05:30:32;101077.84;;;25.32;63.80
48200;BME280;33990;44.602;10.976;2023-09-18T05:33:02;101073.44;;;25.31;63.97
48200;BME280;33990;44.602;10.976;2023-09-18T05:35:39;101087.00;;;25.31;64.00
48200;BME280;33990;44.602;10.976;2023-09-18T05:38:07;101081.56;;;25.31;63.80
48200;BME280;33990;44.602;10.976;2023-09-18T05:40:35;101089.69;;;25.31;63.82
48200;BME280;33990;44.602;10.976;2023-09-18T05:43:03;101092.41;;;25.31;63.72
48200;BME280;33990;44.602;10.976;2023-09-18T05:45:31;101095.13;;;25.31;63.96
48200;BME280;33990;44.602;10.976;2023-09-18T05:47:59;101105.97;;;25.31;63.92
48200;BME280;33990;44.602;10.976;2023-09-18T05:50:35;101111.38;;;25.31;64.01
48200;BME280;33990;44.602;10.976;2023-09-18T05:53:03;101103.09;;;25.32;63.86
48200;BME280;33990;44.602;10.976;2023-09-18T05:55:32;101104.94;;;25.32;63.91
48200;BME280;33990;44.602;10.976;2023-09-18T05:58:01;101113.06;;;25.32;63.83
48200;BME280;33990;44.602;10.976;2023-09-18T06:00:31;101115.78;;;25.32;63.72
48200;BME280;33990;44.602;10.976;2023-09-18T06:02:58;101116.81;;;25.31;63.85
48200;BME280;33990;44.602;10.976;2023-09-18T06:05:27;101116.97;;;25.29;63.75
48200;BME280;33990;44.602;10.976;2023-09-18T06:07:54;101109.88;;;25.28;63.75
48200;BME280;33990;44.602;10.976;2023-09-18T06:10:22;101109.88;;;25.28;63.80
48200;BME280;33990;44.602;10.976;2023-09-18T06:12:49;101117.81;;;25.30;63.95
48200;BME280;33990;44.602;10.976;2023-09-18T06:15:17;101101.56;;;25.30;64.04
48200;BME280;33990;44.602;10.976;2023-09-18T06:17:46;101105.97;;;25.31;63.76
48200;BME280;33990;44.602;10.976;2023-09-18T06:20:13;101092.41;;;25.31;63.70
48200;BME280;33990;44.602;10.976;2023-09-18T06:22:41;101085.31;;;25.30;63.80
48200;BME280;33990;44.602;10.976;2023-09-18T06:25:09;101074.63;;;25.28;63.70
48200;BME280;33990;44.602;10.976;2023-09-18T06:27:41;101077.66;;;25.25;63.35
48200;BME280;33990;44.602;10.976;2023-09-18T06:30:09;101068.00;;;25.23;63.50
48200;BME280;33990;44.602;10.976;2023-09-18T06:32:37;101056.81;;;25.18;63.45
48200;BME280;33990;44.602;10.976;2023-09-18T06:35:05;101062.56;;;25.14;63.51
48200;BME280;33990;44.602;10.976;2023-09-18T06:37:33;101042.94;;;25.12;63.56
48200;BME280;33990;44.602;10.976;2023-09-18T06:40:00;101033.25;;;25.10;63.77
48200;BME280;33990;44.602;10.976;2023-09-18T06:42:32;101043.25;;;25.09;63.86
48200;BME280;33990;44.602;10.976;2023-09-18T06:45:00;101042.53;;;25.07;64.10
48200;BME280;33990;44.602;10.976;2023-09-18T06:47:29;101046.94;;;25.08;63.84
48200;BME280;33990;44.602;10.976;2023-09-18T06:49:56;101053.34;;;25.07;63.82
48200;BME280;33990;44.602;10.976;2023-09-18T06:52:25;101055.41;;;25.05;64.08
48200;BME280;33990;44.602;10.976;2023-09-18T06:54:53;101067.41;;;25.03;64.38
48200;BME280;33990;44.602;10.976;2023-09-18T06:57:21;101071.13;;;25.02;64.26
48200;BME280;33990;44.602;10.976;2023-09-18T06:59:48;101075.00;;;24.99;64.41
48200;BME280;33990;44.602;10.976;2023-09-18T07:02:16;101064.16;;;24.99;64.68
48200;BME280;33990;44.602;10.976;2023-09-18T07:04:44;101073.16;;;25.00;64.61
48200;BME280;33990;44.602;10.976;2023-09-18T07:07:15;101070.59;;;24.98;64.83
48200;BME280;33990;44.602;10.976;2023-09-18T07:09:42;101066.88;;;24.99;64.71
48200;BME280;33990;44.602;10.976;2023-09-18T07:12:30;101072.28;;;24.99;64.71
48200;BME280;33990;44.602;10.976;2023-09-18T07:15:02;101073.00;;;25.01;64.56
48200;BME280;33990;44.602;10.976;2023-09-18T07:17:31;101075.88;;;25.00;64.51
48200;BME280;33990;44.602;10.976;2023-09-18T07:19:59;101076.38;;;25.03;64.47
48200;BME280;33990;44.602;10.976;2023-09-18T07:22:27;101083.31;;;25.06;64.56
48200;BME280;33990;44.602;10.976;2023-09-18T07:24:57;101087.91;;;25.05;64.53
48200;BME280;33990;44.602;10.976;2023-09-18T07:27:25;101086.75;;;25.08;64.70
48200;BME280;33990;44.602;10.976;2023-09-18T07:29:55;101083.88;;;25.09;64.59
48200;BME280;33990;44.602;10.976;2023-09-18T07:32:26;101089.97;;;25.11;64.67
48200;BME280;33990;44.602;10.976;2023-09-18T07:35:05;101078.16;;;25.12;64.50
48200;BME280;33990;44.602;10.976;2023-09-18T07:37:34;101082.72;;;25.12;64.60
48200;BME280;33990;44.602;10.976;2023-09-18T07:40:04;101083.56;;;25.12;64.91
48200;BME280;33990;44.602;10.976;2023-09-18T07:42:32;101072.72;;;25.12;64.59
48200;BME280;33990;44.602;10.976;2023-09-18T07:44:59;101065.06;;;25.08;65.06
48200;BME280;33990;44.602;10.976;2023-09-18T07:47:27;101054.56;;;25.05;65.08
48200;BME280;33990;44.602;10.976;2023-09-18T07:49:55;101046.91;;;25.00;65.04
48200;BME280;33990;44.602;10.976;2023-09-18T07:52:22;101049.94;;;24.97;65.10
48200;BME280;33990;44.602;10.976;2023-09-18T07:54:50;101047.41;;;24.96;65.33
48200;BME280;33990;44.602;10.976;2023-09-18T07:57:17;101043.00;;;24.95;65.55
48200;BME280;33990;44.602;10.976;2023-09-18T07:59:46;101044.72;;;24.96;65.42
48200;BME280;33990;44.602;10.976;2023-09-18T08:02:13;101053.69;;;24.96;65.62
48200;BME280;33990;44.602;10.976;2023-09-18T08:04:41;101061.81;;;24.96;65.53
48200;BME280;33990;44.602;10.976;2023-09-18T08:07:09;101049.09;;;24.97;65.31
48200;BME280;33990;44.602;10.976;2023-09-18T08:09:37;101053.31;;;24.99;65.50
48200;BME280;33990;44.602;10.976;2023-09-18T08:12:06;101045.72;;;25.03;65.36
48200;BME280;33990;44.602;10.976;2023-09-18T08:14:34;101045.56;;;25.04;65.40
48200;BME280;33990;44.602;10.976;2023-09-18T08:17:05;101057.09;;;25.06;65.36
48200;BME280;33990;44.602;10.976;2023-09-18T08:19:36;101059.78;;;25.06;65.39
48200;BME280;33990;44.602;10.976;2023-09-18T08:22:04;101058.78;;;25.07;65.74
48200;BME280;33990;44.602;10.976;2023-09-18T08:24:31;101049.66;;;25.08;65.72
48200;BME280;33990;44.602;10.976;2023-09-18T08:26:59;101037.09;;;25.07;65.55
48200;BME280;33990;44.602;10.976;2023-09-18T08:29:26;101038.97;;;25.07;65.64
48200;BME280;33990;44.602;10.976;2023-09-18T08:31:54;101030.84;;;25.07;65.48
48200;BME280;33990;44.602;10.976;2023-09-18T08:34:21;101037.09;;;25.07;65.49
48200;BME280;33990;44.602;10.976;2023-09-18T08:36:50;101045.97;;;25.09;65.45
48200;BME280;33990;44.602;10.976;2023-09-18T08:39:18;101049.66;;;25.08;65.54
48200;BME280;33990;44.602;10.976;2023-09-18T08:41:50;101045.13;;;25.09;65.41
48200;BME280;33990;44.602;10.976;2023-09-18T08:44:18;101047.09;;;25.07;65.47
48200;BME280;33990;44.602;10.976;2023-09-18T08:46:45;101050.53;;;25.09;65.28
48200;BME280;33990;44.602;10.976;2023-09-18T08:49:13;101046.81;;;25.10;65.33
48200;BME280;33990;44.602;10.976;2023-09-18T08:51:42;101063.06;;;25.10;65.48
48200;BME280;33990;44.602;10.976;2023-09-18T08:54:10;101059.31;;;25.11;65.34
48200;BME280;33990;44.602;10.976;2023-09-18T08:56:38;101049.50;;;25.10;65.12
48200;BME280;33990;44.602;10.976;2023-09-18T08:59:06;101047.66;;;25.10;65.18
48200;BME280;33990;44.602;10.976;2023-09-18T09:01:33;101036.81;;;25.10;65.13
48200;BME280;33990;44.602;10.976;2023-09-18T09:04:01;101037.84;;;25.09;65.32
48200;BME280;33990;44.602;10.976;2023-09-18T09:06:28;101037.84;;;25.09;65.70
48200;BME280;33990;44.602;10.976;2023-09-18T09:08:55;101033.25;;;25.10;65.68
48200;BME280;33990;44.602;10.976;2023-09-18T09:11:23;101032.25;;;25.11;65.72
48200;BME280;33990;44.602;10.976;2023-09-18T09:14:10;101029.72;;;25.09;66.14
48200;BME280;33990;44.602;10.976;2023-09-18T09:16:39;101041.53;;;25.08;65.78
48200;BME280;33990;44.602;10.976;2023-09-18T09:19:08;101045.41;;;25.06;65.76
48200;BME280;33990;44.602;10.976;2023-09-18T09:21:40;101044.56;;;25.05;65.83
48200;BME280;33990;44.602;10.976;2023-09-18T09:24:09;101029.31;;;25.04;65.80
48200;BME280;33990;44.602;10.976;2023-09-18T09:26:43;101030.16;;;25.05;66.11
48200;BME280;33990;44.602;10.976;2023-09-18T09:29:19;101023.91;;;25.04;66.10
48200;BME280;33990;44.602;10.976;2023-09-18T09:31:47;101027.59;;;25.03;66.30
48200;BME280;33990;44.602;10.976;2023-09-18T09:34:25;101023.22;;;25.02;66.60
48200;BME280;33990;44.602;10.976;2023-09-18T09:36:55;101024.91;;;25.03;66.55
48200;BME280;33990;44.602;10.976;2023-09-18T09:39:22;101017.78;;;25.02;66.65
48200;BME280;33990;44.602;10.976;2023-09-18T09:41:52;101014.41;;;25.00;66.57
48200;BME280;33990;44.602;10.976;2023-09-18T09:44:20;101029.66;;;25.01;66.57
48200;BME280;33990;44.602;10.976;2023-09-18T09:46:51;101038.63;;;25.02;66.38
48200;BME280;33990;44.602;10.976;2023-09-18T09:49:27;101023.22;;;25.02;66.56
48200;BME280;33990;44.602;10.976;2023-09-18T09:52:00;101018.81;;;25.01;66.54
48200;BME280;33990;44.602;10.976;2023-09-18T09:54:33;101022.53;;;25.00;66.85
48200;BME280;33990;44.602;10.976;2023-09-18T09:57:04;101020.16;;;24.97;66.68
48200;BME280;33990;44.602;10.976;2023-09-18T09:59:32;101015.59;;;24.98;66.88
48200;BME280;33990;44.602;10.976;2023-09-18T10:02:02;101007.63;;;24.96;66.73
48200;BME280;33990;44.602;10.976;2023-09-18T10:04:31;101002.38;;;24.95;66.76
48200;BME280;33990;44.602;10.976;2023-09-18T10:07:06;101002.53;;;24.93;66.95
48200;BME280;33990;44.602;10.976;2023-09-18T10:09:41;100990.88;;;24.92;67.20
48200;BME280;33990;44.602;10.976;2023-09-18T10:12:17;100991.72;;;24.93;66.93
48200;BME280;33990;44.602;10.976;2023-09-18T10:14:53;100982.41;;;24.96;67.00
48200;BME280;33990;44.602;10.976;2023-09-18T10:17:29;100967.16;;;24.95;66.91
48200;BME280;33990;44.602;10.976;2023-09-18T10:20:07;100950.38;;;24.91;67.24
48200;BME280;33990;44.602;10.976;2023-09-18T10:22:39;100953.59;;;24.86;67.41
48200;BME280;33990;44.602;10.976;2023-09-18T10:25:34;100943.13;;;24.83;67.49
48200;BME280;33990;44.602;10.976;2023-09-18T10:28:03;100962.06;;;24.83;67.60
48200;BME280;33990;44.602;10.976;2023-09-18T10:30:32;100972.72;;;24.85;67.81
48200;BME280;33990;44.602;10.976;2023-09-18T10:33:01;100960.72;;;24.87;67.51
48200;BME280;33990;44.602;10.976;2023-09-18T10:35:29;100964.94;;;24.90;67.52
48200;BME280;33990;44.602;10.976;2023-09-18T10:37:57;100959.22;;;24.93;67.73
48200;BME280;33990;44.602;10.976;2023-09-18T10:40:28;100958.03;;;24.96;67.80
48200;BME280;33990;44.602;10.976;2023-09-18T10:42:57;100960.56;;;24.97;67.70
48200;BME280;33990;44.602;10.976;2023-09-18T10:45:25;100945.16;;;24.98;67.69
48200;BME280;33990;44.602;10.976;2023-09-18T10:47:53;100938.91;;;24.97;67.67
48200;BME280;33990;44.602;10.976;2023-09-18T10:50:26;100934.31;;;24.98;67.69
48200;BME280;33990;44.602;10.976;2023-09-18T10:52:57;100940.59;;;24.98;67.47
48200;BME280;33990;44.602;10.976;2023-09-18T10:55:25;100939.75;;;24.98;67.58
48200;BME280;33990;44.602;10.976;2023-09-18T10:57:55;100940.59;;;24.98;67.53
48200;BME280;33990;44.602;10.976;2023-09-18T11:00:29;100936.84;;;24.99;67.41
48200;BME280;33990;44.602;10.976;2023-09-18T11:03:11;100949.41;;;25.00;67.49
48200;BME280;33990;44.602;10.976;2023-09-18T11:05:40;100937.56;;;25.01;67.63
48200;BME280;33990;44.602;10.976;2023-09-18T11:10:59;100931.81;;;25.04;67.33
48200;BME280;33990;44.602;10.976;2023-09-18T11:13:34;100926.22;;;25.06;67.32
48200;BME280;33990;44.602;10.976;2023-09-18T11:21:28;100932.81;;;25.03;67.40
48200;BME280;33990;44.602;10.976;2023-09-18T11:29:09;100914.72;;;25.04;67.54
48200;BME280;33990;44.602;10.976;2023-09-18T11:31:47;100914.53;;;25.05;67.64
48200;BME280;33990;44.602;10.976;2023-09-18T11:34:20;100899.31;;;25.04;67.60
48200;BME280;33990;44.602;10.976;2023-09-18T11:36:48;100896.41;;;25.06;67.66
48200;BME280;33990;44.602;10.976;2023-09-18T11:39:36;100895.56;;;25.05;67.86
48200;BME280;33990;44.602;10.976;2023-09-18T11:44:36;100889.81;;;25.08;67.92
48200;BME280;33990;44.602;10.976;2023-09-18T11:47:19;100892.53;;;25.08;67.84
48200;BME280;33990;44.602;10.976;2023-09-18T11:52:18;100899.50;;;25.11;67.82
48200;BME280;33990;44.602;10.976;2023-09-18T11:54:46;100897.63;;;25.11;68.23
48200;BME280;33990;44.602;10.976;2023-09-18T11:57:14;100910.19;;;25.12;68.01
48200;BME280;33990;44.602;10.976;2023-09-18T11:59:42;100894.78;;;25.13;68.35
48200;BME280;33990;44.602;10.976;2023-09-18T12:02:31;100886.47;;;25.14;68.39
48200;BME280;33990;44.602;10.976;2023-09-18T12:05:17;100888.16;;;25.15;68.16
48200;BME280;33990;44.602;10.976;2023-09-18T12:07:45;100875.47;;;25.16;68.17
48200;BME280;33990;44.602;10.976;2023-09-18T12:10:18;100864.47;;;25.18;68.32
48200;BME280;33990;44.602;10.976;2023-09-18T12:12:47;100851.94;;;25.17;68.15
48200;BME280;33990;44.602;10.976;2023-09-18T12:15:17;100850.72;;;25.19;68.25
48200;BME280;33990;44.602;10.976;2023-09-18T12:17:45;100851.56;;;25.20;67.84
48200;BME280;33990;44.602;10.976;2023-09-18T12:20:16;100835.31;;;25.20;67.83
48200;BME280;33990;44.602;10.976;2023-09-18T12:22:47;100844.47;;;25.19;68.08
48200;BME280;33990;44.602;10.976;2023-09-18T12:25:15;100847.03;;;25.20;67.87
48200;BME280;33990;44.602;10.976;2023-09-18T12:27:44;100841.44;;;25.22;67.86
48200;BME280;33990;44.602;10.976;2023-09-18T12:30:12;100837.69;;;25.23;67.67
48200;BME280;33990;44.602;10.976;2023-09-18T12:32:47;100849.38;;;25.23;67.63
48200;BME280;33990;44.602;10.976;2023-09-18T12:35:18;100849.22;;;25.25;67.62
48200;BME280;33990;44.602;10.976;2023-09-18T12:37:48;100843.81;;;25.25;67.54
48200;BME280;33990;44.602;10.976;2023-09-18T12:40:26;100834.66;;;25.26;67.55
48200;BME280;33990;44.602;10.976;2023-09-18T12:42:57;100838.03;;;25.28;67.75
48200;BME280;33990;44.602;10.976;2023-09-18T12:45:27;100840.72;;;25.28;67.68
48200;BME280;33990;44.602;10.976;2023-09-18T12:47:57;100837.88;;;25.29;67.31
48200;BME280;33990;44.602;10.976;2023-09-18T12:50:26;100848.53;;;25.31;67.53
48200;BME280;33990;44.602;10.976;2023-09-18T12:53:06;100843.09;;;25.31;67.63
48200;BME280;33990;44.602;10.976;2023-09-18T12:55:34;100843.78;;;25.33;67.83
48200;BME280;33990;44.602;10.976;2023-09-18T12:58:03;100841.75;;;25.35;68.38
48200;BME280;33990;44.602;10.976;2023-09-18T13:00:36;100845.28;;;25.35;68.46
48200;BME280;33990;44.602;10.976;2023-09-18T13:03:03;100842.59;;;25.35;68.58
48200;BME280;33990;44.602;10.976;2023-09-18T13:05:31;100825.34;;;25.36;68.97
48200;BME280;33990;44.602;10.976;2023-09-18T13:08:03;100822.63;;;25.36;69.04
48200;BME280;33990;44.602;10.976;2023-09-18T13:10:46;100829.88;;;25.36;68.92